Sheridan, Texas
Current Conditions -  °F | °C
As of 2:15 AM on Monday 24 Nov 2014 (Local Time) from K66R Reporting Station
Clear Clear  
Wind Chill: 56°   Ceiling: Unl
Heat Index: 56°   Visibility: 10mi
Dew Point: 42°   Wind: 18mph
Humidity: 59%   Direction: 350°N
Pressure: 29.85"   Gusts: 25mph
Location:  29.49°N, 96.67°W
Report Text: K66R 240815Z AUTO 35016G22KT 10SM CLR 13/05 A2985 RMK AO2 T01330054
Loading
Personal Weather Stations






























Interactive Weather Map New forecast layout! Learn more

10-Day Weather Forecast

Advertisements
Track Severe Weather on mobile